Portada
METAR-TAF:

METAR-TAF

Aeropuertos :

Sanliurfa, Turquía

latitud: 37-27N, longitud: 38-54E, altitud: 823 m

Observación

El informe se hizo hace 47 minutos, a las 15:50 UTC
Viento 10 kt del este-noreste
Temperatura 27°C
Humedad 32%
Presión 1017 hPa
Visibilidad 10 km o más
sin nubes por debajo de 1500 m y sin presencia de cumulonimbus.

METAR: LTCS 271550Z 06010KT CAVOK 27/09 Q1017 RMK RWY22 08012KT

Hora: 19:37 (16:37 UTC)

Pronóstico

El informe se hizo hace 5 horas y 57 minutos, a las 10:40 UTC
Pronóstico válido del 27 a las 12 UTC al 28 a las 12 UTC
Viento 2 kt con dirección variable
Visibilidad 10 km o más
sin nubes por debajo de 1500 m y sin presencia de cumulonimbus.
Temporalmente
del 27 a las 12 UTC al 27 a las 16 UTC
Viento 12 kt del sureste

TAF: LTCS 271040Z 2712/2812 VRB02KT CAVOK TEMPO 2712/2716 13012KT

Observaciones y pronósticos meteorológicos de más de 4000 aeropuertos (mensajes METAR y TAF).

Los puntos amarillos y rojos representan las estaciones disponibles.

Ponga el ratón en el punto deseado para ver el nombre de la estación.

Haga clic para ver las observaciones y los pronósticos meteorológicos.

Para cambiar el mapa : haga clic en los botones verdes con una cruz de color negro para hacer un zoom, en el botón verde con un guión para alejar o en las flechas verdes para mapas adyacentes.


METAR-TAF: